Time;durP1;ratioP1;P1;durP2;ratioP2;P2;SDS_P1;SDS_P2;PMS_P1;PMS_P2;Temp;Humidity;BMP_temperature;BMP_pressure;BME280_temperature;BME280_humidity;BME280_pressure;Samples;Min_cycle;Max_cycle;Signal;HPM_P1;HPM_P2
2023/01/12 00:01:16;;;;;;;44.78;27.83;;;;;;;1.86;100.00;100892.53;5111786;28;20039;-68
2023/01/12 00:03:42;;;;;;;49.03;28.67;;;;;;;1.78;100.00;100882.28;5110359;28;20024;-68
2023/01/12 00:06:08;;;;;;;50.47;28.77;;;;;;;1.82;100.00;100891.84;5110944;28;20039;-66
2023/01/12 00:08:33;;;;;;;53.00;28.35;;;;;;;1.80;100.00;100891.03;5111556;28;20047;-67
2023/01/12 00:11:00;;;;;;;50.15;28.75;;;;;;;1.73;100.00;100886.94;5110168;28;20031;-67
2023/01/12 00:13:26;;;;;;;49.63;28.17;;;;;;;1.79;100.00;100907.81;5111254;28;20495;-68
2023/01/12 00:18:40;;;;;;;50.85;28.27;;;;;;;1.79;100.00;100917.53;5110784;28;20103;-68
2023/01/12 00:21:06;;;;;;;56.28;30.70;;;;;;;1.75;100.00;100910.66;5110634;28;20115;-68
2023/01/12 00:23:32;;;;;;;57.75;30.95;;;;;;;1.82;100.00;100923.56;5110908;28;20037;-68
2023/01/12 00:25:57;;;;;;;61.92;32.70;;;;;;;1.85;100.00;100926.06;5109188;28;20028;-68
2023/01/12 00:28:23;;;;;;;57.25;31.42;;;;;;;1.91;100.00;100924.94;5110310;28;20043;-68
2023/01/12 00:30:48;;;;;;;56.03;30.45;;;;;;;1.93;100.00;100929.25;5110549;28;20036;-68
2023/01/12 00:33:14;;;;;;;51.42;29.58;;;;;;;2.00;100.00;100937.78;5110534;28;20514;-69
2023/01/12 00:35:39;;;;;;;52.72;29.50;;;;;;;2.04;100.00;100940.19;5110253;28;20555;-68
2023/01/12 00:38:05;;;;;;;58.80;33.20;;;;;;;2.08;100.00;100940.94;5110270;28;20104;-67
2023/01/12 00:40:31;;;;;;;50.05;30.98;;;;;;;2.05;100.00;100920.78;5110619;28;20019;-68
2023/01/12 00:45:41;;;;;;;57.20;32.45;;;;;;;2.23;100.00;100930.53;5110200;28;20077;-67
2023/01/12 00:48:12;;;;;;;54.72;31.55;;;;;;;2.24;100.00;100924.34;5109118;28;20047;-67
2023/01/12 00:50:37;;;;;;;58.22;32.50;;;;;;;2.33;100.00;100928.38;5110116;28;20536;-68
2023/01/12 00:53:03;;;;;;;55.88;32.67;;;;;;;2.39;100.00;100933.38;5110064;28;20027;-67
2023/01/12 00:55:28;;;;;;;51.10;29.98;;;;;;;2.45;100.00;100935.72;5109825;28;20110;-67
2023/01/12 00:57:54;;;;;;;57.35;30.88;;;;;;;2.41;100.00;100934.16;5110336;28;20019;-68
2023/01/12 01:00:19;;;;;;;51.88;31.73;;;;;;;2.49;100.00;100939.13;5110153;28;20035;-69
2023/01/12 01:02:45;;;;;;;51.83;30.55;;;;;;;2.56;100.00;100945.84;5110581;28;20027;-68
2023/01/12 01:05:10;;;;;;;53.90;30.10;;;;;;;2.63;100.00;100952.59;5110547;28;20480;-68
2023/01/12 01:07:37;;;;;;;53.47;29.23;;;;;;;2.66;100.00;100941.84;5108255;28;20050;-68
2023/01/12 01:10:03;;;;;;;56.13;30.20;;;;;;;2.69;100.00;100936.41;5109145;28;20066;-68
2023/01/12 01:12:28;;;;;;;52.72;29.13;;;;;;;2.72;100.00;100934.50;5110228;28;20047;-68
2023/01/12 01:14:53;;;;;;;50.13;29.40;;;;;;;2.82;100.00;100943.75;5110190;28;20110;-68
2023/01/12 01:17:19;;;;;;;47.58;28.20;;;;;;;2.85;100.00;100940.94;5109057;28;20039;-68
2023/01/12 01:19:47;;;;;;;57.17;30.50;;;;;;;2.85;100.00;100940.06;5110289;28;20028;-68
2023/01/12 01:22:13;;;;;;;48.33;29.13;;;;;;;3.03;100.00;100953.31;5108974;28;20035;-68
2023/01/12 01:24:39;;;;;;;46.22;28.33;;;;;;;3.03;100.00;100950.66;5110393;28;20027;-68
2023/01/12 01:27:04;;;;;;;52.70;28.23;;;;;;;3.22;100.00;100937.44;5110005;28;20020;-68
2023/01/12 01:29:30;;;;;;;50.58;28.60;;;;;;;3.36;100.00;100919.06;5110085;28;20032;-68
2023/01/12 01:31:56;;;;;;;45.60;27.45;;;;;;;3.30;100.00;100916.69;5110312;28;20108;-68
2023/01/12 01:34:25;;;;;;;45.00;26.80;;;;;;;3.24;100.00;100917.00;5109985;28;20027;-68
2023/01/12 01:36:50;;;;;;;43.72;26.67;;;;;;;3.23;100.00;100933.84;5109974;28;20114;-68
2023/01/12 01:39:15;;;;;;;46.17;27.45;;;;;;;3.13;100.00;100917.50;5108192;28;20547;-69
2023/01/12 01:41:41;;;;;;;46.63;27.60;;;;;;;3.19;100.00;100927.81;5110085;28;20035;-69
2023/01/12 01:44:28;;;;;;;45.10;27.13;;;;;;;3.20;100.00;100934.84;5109625;28;20027;-68
2023/01/12 01:47:06;;;;;;;47.97;27.60;;;;;;;3.15;100.00;100918.31;5109548;28;20891;-68
2023/01/12 01:49:42;;;;;;;41.40;25.92;;;;;;;3.20;100.00;100926.03;5107863;28;20056;-68
2023/01/12 01:52:13;;;;;;;47.15;25.50;;;;;;;3.21;100.00;100928.59;5108056;28;20106;-67
2023/01/12 01:54:45;;;;;;;42.78;24.63;;;;;;;3.23;100.00;100928.53;5109358;28;20023;-68
2023/01/12 01:57:12;;;;;;;41.88;25.88;;;;;;;3.34;100.00;100921.78;5108188;28;20068;-69
2023/01/12 01:59:43;;;;;;;40.78;25.50;;;;;;;3.31;100.00;100907.81;5107876;28;20032;-70
2023/01/12 02:02:09;;;;;;;38.78;24.63;;;;;;;3.29;100.00;100912.34;5109829;28;20049;-71
2023/01/12 02:04:35;;;;;;;35.80;23.30;;;;;;;3.16;100.00;100901.47;5109721;28;20136;-70
2023/01/12 02:07:01;;;;;;;41.53;24.98;;;;;;;3.22;100.00;100910.94;5108179;28;20023;-70
2023/01/12 02:09:29;;;;;;;44.90;24.55;;;;;;;3.16;100.00;100909.41;5109108;28;20028;-70
2023/01/12 02:17:51;;;;;;;41.75;24.70;;;;;;;3.05;100.00;100927.63;5107373;28;20064;-68
2023/01/12 02:20:26;;;;;;;37.47;23.88;;;;;;;3.01;100.00;100922.53;5105194;27;20027;-69
2023/01/12 02:23:03;;;;;;;44.75;24.05;;;;;;;2.96;100.00;100924.56;5106748;28;20479;-69
2023/01/12 02:25:32;;;;;;;37.78;23.02;;;;;;;2.94;100.00;100926.41;5106677;28;20024;-68
2023/01/12 02:28:10;;;;;;;43.90;24.05;;;;;;;2.88;100.00;100921.41;5108660;27;20024;-68
2023/01/12 02:30:54;;;;;;;38.28;22.25;;;;;;;2.82;100.00;100913.72;5107897;28;20479;-68
2023/01/12 02:33:56;;;;;;;37.05;22.15;;;;;;;2.77;100.00;100916.59;5107019;28;20485;-69
2023/01/12 02:36:49;;;;;;;36.70;21.50;;;;;;;2.77;100.00;100921.06;5106771;28;20506;-67
2023/01/12 02:39:40;;;;;;;38.40;23.05;;;;;;;2.74;100.00;100913.25;5106810;28;20024;-67
2023/01/12 02:45:29;;;;;;;37.95;22.27;;;;;;;2.70;100.00;100906.38;5106462;28;20127;-67
2023/01/12 02:48:14;;;;;;;37.03;21.90;;;;;;;2.67;100.00;100909.16;5107745;28;20431;-69
2023/01/12 02:50:56;;;;;;;35.38;21.00;;;;;;;2.67;100.00;100911.81;5105863;28;20050;-68
2023/01/12 02:53:29;;;;;;;41.50;20.50;;;;;;;2.61;100.00;100896.22;5107670;28;20515;-69
2023/01/12 02:55:58;;;;;;;34.60;21.40;;;;;;;2.57;100.00;100905.22;5107013;28;20691;-68
2023/01/12 02:58:26;;;;;;;34.88;20.90;;;;;;;2.52;100.00;100901.91;5108740;28;20031;-68
2023/01/12 03:00:55;;;;;;;35.65;20.27;;;;;;;2.45;100.00;100896.03;5107809;28;20514;-68
2023/01/12 03:03:21;;;;;;;32.05;19.33;;;;;;;2.45;100.00;100900.50;5107791;28;20467;-68
2023/01/12 03:05:47;;;;;;;36.28;20.35;;;;;;;2.41;100.00;100896.28;5108248;28;20044;-68
2023/01/12 03:08:22;;;;;;;31.50;19.45;;;;;;;2.40;100.00;100895.41;5107784;28;20030;-68
2023/01/12 03:10:59;;;;;;;31.02;19.48;;;;;;;2.32;100.00;100886.94;5109607;28;20027;-69
2023/01/12 03:13:27;;;;;;;27.30;17.17;;;;;;;2.28;100.00;100878.28;5111791;28;20399;-68
2023/01/12 03:15:55;;;;;;;30.80;18.10;;;;;;;2.28;100.00;100888.88;5113060;28;20122;-68
2023/01/12 03:18:33;;;;;;;33.72;17.35;;;;;;;2.23;100.00;100876.78;5111730;28;20031;-67
2023/01/12 03:21:04;;;;;;;26.23;16.77;;;;;;;2.18;100.00;100860.25;5112824;28;20028;-68
2023/01/12 03:23:37;;;;;;;32.00;17.17;;;;;;;2.21;100.00;100865.41;5112613;27;20023;-68
2023/01/12 03:26:06;;;;;;;28.98;16.90;;;;;;;2.08;100.00;100849.22;5112968;28;20031;-67
2023/01/12 03:28:35;;;;;;;29.73;17.83;;;;;;;2.10;100.00;100855.28;5112729;28;20115;-67
2023/01/12 03:31:10;;;;;;;27.05;16.15;;;;;;;2.06;100.00;100853.72;5112747;28;20105;-66
2023/01/12 03:33:37;;;;;;;27.63;17.83;;;;;;;2.04;100.00;100846.78;5112951;28;20106;-70
2023/01/12 03:36:03;;;;;;;28.52;17.38;;;;;;;2.01;100.00;100837.22;5113080;28;20039;-69
2023/01/12 03:39:12;;;;;;;28.85;17.17;;;;;;;1.96;100.00;100840.97;5112704;28;20024;-69
2023/01/12 03:42:14;;;;;;;30.27;17.95;;;;;;;1.86;100.00;100835.22;5111602;28;20028;-69
2023/01/12 03:45:06;;;;;;;26.52;16.75;;;;;;;1.91;100.00;100854.38;5112599;28;20038;-69
2023/01/12 03:47:33;;;;;;;32.72;19.02;;;;;;;1.91;100.00;100858.84;5111135;28;20044;-69
2023/01/12 03:50:13;;;;;;;34.63;18.58;;;;;;;1.93;100.00;100871.06;5112415;27;20388;-69
2023/01/12 03:52:39;;;;;;;35.65;19.58;;;;;;;1.83;100.00;100842.44;5113068;28;20031;-69
2023/01/12 03:55:08;;;;;;;32.33;20.08;;;;;;;1.88;100.00;100858.97;5112515;28;20543;-69
2023/01/12 03:57:36;;;;;;;30.70;19.05;;;;;;;1.82;100.00;100872.44;5112079;28;20028;-67
2023/01/12 04:00:06;;;;;;;29.80;18.23;;;;;;;1.82;100.00;100869.81;5112176;28;20034;-68
2023/01/12 04:02:32;;;;;;;32.90;20.35;;;;;;;1.74;100.00;100870.13;5111565;28;20039;-67
2023/01/12 04:04:58;;;;;;;35.75;20.13;;;;;;;1.71;100.00;100864.13;5111344;28;20084;-69
2023/01/12 04:07:24;;;;;;;32.75;19.83;;;;;;;1.68;100.00;100867.75;5110713;28;20487;-69
2023/01/12 04:09:49;;;;;;;36.33;21.58;;;;;;;1.66;100.00;100874.91;5111377;28;20095;-69
2023/01/12 04:12:15;;;;;;;39.53;21.58;;;;;;;1.66;100.00;100888.13;5109876;28;20453;-70
2023/01/12 04:14:44;;;;;;;40.85;22.38;;;;;;;1.65;100.00;100873.16;5110066;28;20585;-68
2023/01/12 04:17:13;;;;;;;43.08;24.08;;;;;;;1.82;100.00;100888.31;5111124;28;20031;-68
2023/01/12 04:19:39;;;;;;;40.60;22.50;;;;;;;1.85;100.00;100893.47;5111216;28;20471;-68
2023/01/12 04:24:49;;;;;;;39.55;22.38;;;;;;;1.75;100.00;100890.38;5111270;28;20073;-69
2023/01/12 04:27:16;;;;;;;35.88;20.83;;;;;;;1.75;100.00;100893.03;5110659;28;20450;-68
2023/01/12 04:29:42;;;;;;;34.90;20.35;;;;;;;1.75;100.00;100890.38;5110970;28;20511;-68
2023/01/12 04:32:08;;;;;;;33.28;18.98;;;;;;;1.75;100.00;100890.38;5110981;28;20031;-68
2023/01/12 04:34:34;;;;;;;34.97;19.20;;;;;;;1.74;100.00;100883.34;5110391;28;20032;-67
2023/01/12 04:37:00;;;;;;;32.85;20.58;;;;;;;1.73;100.00;100894.84;5110554;28;20035;-67
2023/01/12 04:39:26;;;;;;;36.40;19.85;;;;;;;1.75;100.00;100893.03;5110518;28;20023;-68
2023/01/12 04:41:52;;;;;;;33.35;18.20;;;;;;;1.77;100.00;100898.22;5110283;28;20475;-68
2023/01/12 04:44:17;;;;;;;34.60;19.40;;;;;;;1.81;100.00;100898.03;5110347;28;20033;-68
2023/01/12 04:46:43;;;;;;;31.27;19.83;;;;;;;1.84;100.00;100905.00;5110660;28;20100;-68
2023/01/12 04:49:08;;;;;;;35.17;19.08;;;;;;;1.86;100.00;100904.00;5109097;28;20035;-68
2023/01/12 04:51:34;;;;;;;38.78;21.13;;;;;;;1.90;100.00;100907.34;5110764;28;20062;-67
2023/01/12 04:53:59;;;;;;;34.35;20.27;;;;;;;1.97;100.00;100907.00;5110284;28;20032;-68
2023/01/12 04:56:24;;;;;;;34.05;20.52;;;;;;;2.00;100.00;100904.25;5110891;28;20028;-68
2023/01/12 04:58:58;;;;;;;36.10;18.95;;;;;;;2.08;100.00;100906.56;5110921;28;20098;-67
2023/01/12 05:01:23;;;;;;;35.63;20.40;;;;;;;2.07;100.00;100902.19;5108334;28;20038;-68
2023/01/12 05:03:49;;;;;;;30.20;18.63;;;;;;;2.17;100.00;100912.28;5111001;28;20027;-69
2023/01/12 05:06:14;;;;;;;33.65;18.42;;;;;;;2.20;100.00;100920.09;5110968;28;20034;-69
2023/01/12 05:11:27;;;;;;;33.53;19.05;;;;;;;2.29;100.00;100932.09;5110441;28;20034;-70
2023/01/12 05:13:52;;;;;;;34.25;19.67;;;;;;;2.26;100.00;100930.41;5111461;27;20059;-69
2023/01/12 05:16:18;;;;;;;34.08;18.83;;;;;;;2.40;100.00;100948.34;5109888;28;20428;-69
2023/01/12 05:18:44;;;;;;;31.30;18.08;;;;;;;2.38;100.00;100937.81;5111256;28;20016;-70
2023/01/12 05:21:16;;;;;;;34.03;19.05;;;;;;;2.38;100.00;100943.09;5109827;28;20126;-70
2023/01/12 05:23:42;;;;;;;36.53;18.65;;;;;;;2.47;100.00;100941.84;5107666;28;20771;-70
2023/01/12 05:26:09;;;;;;;31.85;19.27;;;;;;;2.53;100.00;100944.22;5111016;28;20437;-71
2023/01/12 05:28:35;;;;;;;36.55;20.10;;;;;;;2.56;100.00;100937.91;5110609;28;20024;-70
2023/01/12 05:31:07;;;;;;;30.05;19.02;;;;;;;2.57;100.00;100921.13;5110876;28;20471;-69
2023/01/12 05:33:33;;;;;;;32.20;19.25;;;;;;;2.61;100.00;100927.97;5108517;28;20446;-70
2023/01/12 05:36:02;;;;;;;32.65;19.40;;;;;;;2.63;100.00;100924.31;5110487;28;20478;-69
2023/01/12 05:38:28;;;;;;;31.98;19.50;;;;;;;2.66;100.00;100921.53;5110258;28;20036;-69
2023/01/12 05:40:53;;;;;;;29.88;19.08;;;;;;;2.63;100.00;100926.09;5110561;28;20040;-68
2023/01/12 05:46:04;;;;;;;34.88;20.27;;;;;;;2.77;100.00;100950.19;5110261;28;20123;-69
2023/01/12 05:48:31;;;;;;;34.55;20.73;;;;;;;2.72;100.00;100925.69;5109935;28;20101;-68
2023/01/12 05:51:05;;;;;;;31.80;19.35;;;;;;;2.73;100.00;100933.56;5109222;28;20055;-67
2023/01/12 05:53:30;;;;;;;33.03;19.60;;;;;;;2.79;100.00;100943.00;5106666;28;20479;-68
2023/01/12 05:55:57;;;;;;;33.63;19.02;;;;;;;2.80;100.00;100934.16;5108779;28;20042;-69
2023/01/12 05:58:23;;;;;;;29.38;18.83;;;;;;;2.77;100.00;100932.47;5107822;28;20031;-70
2023/01/12 06:00:48;;;;;;;31.50;19.05;;;;;;;2.82;100.00;100938.44;5109622;28;20046;-70
2023/01/12 06:03:14;;;;;;;30.55;18.25;;;;;;;2.83;100.00;100939.31;5109397;28;20395;-70
2023/01/12 06:05:39;;;;;;;30.30;19.23;;;;;;;2.90;100.00;100935.44;5109099;28;20039;-71
2023/01/12 06:08:05;;;;;;;29.73;18.38;;;;;;;2.93;100.00;100944.09;5109322;28;20032;-71
2023/01/12 06:10:33;;;;;;;31.75;19.75;;;;;;;2.94;100.00;100944.97;5109084;28;20023;-70
2023/01/12 06:15:42;;;;;;;;;;;;;;;3.00;100.00;100952.63;5109219;28;20038;-69
2023/01/12 06:18:08;;;;;;;33.17;18.77;;;;;;;2.99;100.00;100957.06;5109192;28;19919;-70
2023/01/12 06:20:33;;;;;;;35.00;20.00;;;;;;;3.03;100.00;100955.13;5107603;28;20051;-71
2023/01/12 06:23:03;;;;;;;35.78;19.90;;;;;;;3.00;100.00;100947.31;5108398;28;20042;-69
2023/01/12 06:25:29;;;;;;;33.65;20.50;;;;;;;3.04;100.00;100960.38;5108619;28;20031;-70
2023/01/12 06:27:55;;;;;;;38.50;21.65;;;;;;;3.12;100.00;100967.94;5109697;28;20031;-69
2023/01/12 06:30:23;;;;;;;35.85;21.75;;;;;;;3.13;100.00;100967.00;5108095;28;20044;-69
2023/01/12 06:32:49;;;;;;;41.05;21.20;;;;;;;3.07;100.00;100954.91;5109231;28;20035;-67
2023/01/12 06:35:15;;;;;;;33.55;19.88;;;;;;;3.12;100.00;100959.97;5109493;27;20023;-68
2023/01/12 06:37:40;;;;;;;34.63;21.00;;;;;;;3.21;100.00;100984.28;5109140;28;20574;-68
2023/01/12 06:40:06;;;;;;;33.03;19.73;;;;;;;3.23;100.00;100982.41;5108778;28;20020;-67
2023/01/12 06:42:32;;;;;;;34.20;20.20;;;;;;;3.23;100.00;100977.13;5108986;28;20016;-68
2023/01/12 06:44:59;;;;;;;32.55;21.05;;;;;;;3.26;100.00;100986.72;5108262;28;20027;-68
2023/01/12 06:47:32;;;;;;;38.40;20.52;;;;;;;3.30;100.00;100993.56;5108476;28;20058;-69
2023/01/12 06:49:58;;;;;;;34.53;19.93;;;;;;;3.27;100.00;100981.34;5106475;28;20047;-68
2023/01/12 06:52:25;;;;;;;36.65;21.38;;;;;;;3.26;100.00;100979.59;5108309;28;20044;-68
2023/01/12 06:54:51;;;;;;;38.22;22.05;;;;;;;3.37;100.00;100987.91;5108523;28;20055;-69
2023/01/12 06:57:17;;;;;;;33.05;19.88;;;;;;;3.39;100.00;100986.03;5108865;28;20066;-70
2023/01/12 06:59:43;;;;;;;35.10;20.83;;;;;;;3.32;100.00;100967.88;5108804;28;20559;-69
2023/01/12 07:02:13;;;;;;;38.78;21.55;;;;;;;3.42;100.00;100987.69;5109006;28;20019;-70
2023/01/12 07:04:39;;;;;;;33.17;20.73;;;;;;;3.46;100.00;100987.47;5109056;28;20019;-71
2023/01/12 07:07:06;;;;;;;43.42;22.90;;;;;;;3.38;100.00;100973.72;5107226;28;20468;-69
2023/01/12 07:09:31;;;;;;;34.67;20.88;;;;;;;3.41;100.00;100978.00;5108602;28;20074;-69
2023/01/12 07:11:57;;;;;;;35.53;20.30;;;;;;;3.51;100.00;100982.78;5108608;28;20020;-70
2023/01/12 07:14:22;;;;;;;41.08;21.02;;;;;;;3.53;100.00;100985.38;5108695;28;20035;-69
2023/01/12 07:16:48;;;;;;;36.60;21.40;;;;;;;3.58;100.00;100992.16;5108669;28;20039;-70
2023/01/12 07:19:13;;;;;;;34.92;20.75;;;;;;;3.57;100.00;100978.97;5108431;28;20360;-69
2023/01/12 07:21:39;;;;;;;30.02;19.75;;;;;;;3.60;100.00;100984.13;5103744;28;20053;-70
2023/01/12 07:24:04;;;;;;;37.95;21.35;;;;;;;3.55;100.00;100971.09;5108138;28;20019;-70
2023/01/12 07:26:30;;;;;;;33.13;20.38;;;;;;;3.58;100.00;100972.75;5108675;28;20368;-71
2023/01/12 07:28:55;;;;;;;38.70;22.25;;;;;;;3.60;100.00;100992.97;5107256;28;20027;-71
2023/01/12 07:31:21;;;;;;;34.58;22.15;;;;;;;3.66;100.00;100997.97;5107929;28;20829;-71
2023/01/12 07:33:46;;;;;;;35.65;21.90;;;;;;;3.63;100.00;101007.84;5107771;28;20038;-71
2023/01/12 07:36:12;;;;;;;36.95;20.42;;;;;;;3.58;100.00;100992.16;5109023;28;20125;-70
2023/01/12 07:38:37;;;;;;;32.75;21.27;;;;;;;3.57;100.00;100984.28;5108066;28;20407;-69
2023/01/12 07:41:03;;;;;;;33.38;20.33;;;;;;;3.65;100.00;100990.09;5108035;28;20036;-71
2023/01/12 07:43:31;;;;;;;31.77;19.63;;;;;;;3.67;100.00;100999.69;5107385;28;20032;-69
2023/01/12 07:45:58;;;;;;;32.60;18.98;;;;;;;3.67;100.00;100993.50;5108356;28;20023;-70
2023/01/12 07:48:25;;;;;;;31.25;19.23;;;;;;;3.69;100.00;101000.47;5108045;28;20040;-70
2023/01/12 07:50:51;;;;;;;36.30;19.05;;;;;;;3.65;100.00;100990.09;5108640;28;20049;-70
2023/01/12 07:53:18;;;;;;;29.83;19.23;;;;;;;3.74;100.00;101006.41;5105386;28;20051;-69
2023/01/12 07:55:44;;;;;;;30.23;19.65;;;;;;;3.70;100.00;101004.84;5108296;28;20034;-70
2023/01/12 07:58:09;;;;;;;28.10;19.30;;;;;;;3.69;100.00;100999.59;5108829;28;20495;-69
2023/01/12 08:00:35;;;;;;;34.60;19.90;;;;;;;3.82;100.00;101008.69;5109986;28;20031;-70
2023/01/12 08:03:07;;;;;;;34.22;20.10;;;;;;;3.79;100.00;101009.69;5110774;28;20433;-70
2023/01/12 08:05:33;;;;;;;36.22;21.13;;;;;;;3.87;100.00;101015.47;5109657;28;20038;-69
2023/01/12 08:07:58;;;;;;;35.83;22.65;;;;;;;3.82;100.00;101008.69;5110061;28;20035;-71
2023/01/12 08:10:27;;;;;;;43.58;22.98;;;;;;;3.87;100.00;101004.03;5111581;28;20132;-71
2023/01/12 08:12:53;;;;;;;39.65;24.00;;;;;;;3.90;100.00;101006.53;5111701;28;20055;-71
2023/01/12 08:15:19;;;;;;;40.65;24.95;;;;;;;3.85;100.00;101008.53;5111574;28;20069;-69
2023/01/12 08:17:55;;;;;;;40.75;25.00;;;;;;;3.91;100.00;101014.41;5112041;28;20031;-70
2023/01/12 08:20:26;;;;;;;39.65;23.52;;;;;;;3.92;100.00;101008.16;5108123;28;20106;-70
2023/01/12 08:22:54;;;;;;;37.58;24.30;;;;;;;3.93;100.00;101007.22;5109534;28;20026;-69
2023/01/12 08:25:34;;;;;;;37.45;23.08;;;;;;;4.01;100.00;101013.03;5111237;28;20680;-70
2023/01/12 08:28:03;;;;;;;33.90;20.88;;;;;;;4.03;100.00;101004.97;5110526;28;20043;-69
2023/01/12 08:30:29;;;;;;;34.67;20.83;;;;;;;4.04;100.00;101004.03;5109552;28;20076;-70
2023/01/12 08:32:57;;;;;;;33.00;20.13;;;;;;;4.07;100.00;101009.19;5111860;28;20481;-69
2023/01/12 08:35:25;;;;;;;35.25;20.25;;;;;;;4.04;100.00;100998.72;5112571;28;20051;-69
2023/01/12 08:37:50;;;;;;;31.88;19.10;;;;;;;4.12;100.00;101012.47;5111036;28;20132;-70
2023/01/12 08:40:16;;;;;;;33.00;20.75;;;;;;;4.19;100.00;101021.81;5111183;28;20095;-70
2023/01/12 08:42:42;;;;;;;32.00;20.33;;;;;;;4.16;100.00;101019.34;5111771;28;20100;-71
2023/01/12 08:45:08;;;;;;;33.13;20.08;;;;;;;4.20;100.00;101036.84;5110119;28;20118;-70
2023/01/12 08:47:34;;;;;;;33.58;20.35;;;;;;;4.20;100.00;101027.06;5111099;28;20153;-72
2023/01/12 08:50:00;;;;;;;36.42;20.52;;;;;;;4.24;100.00;101033.09;5111512;28;20486;-70
2023/01/12 08:52:31;;;;;;;34.28;21.92;;;;;;;4.30;100.00;101044.28;5110973;28;20106;-70
2023/01/12 08:54:56;;;;;;;34.05;22.33;;;;;;;4.28;100.00;101042.59;5111131;28;20581;-70
2023/01/12 08:57:22;;;;;;;30.58;21.15;;;;;;;4.33;100.00;101046.75;5111200;28;20031;-70
2023/01/12 08:59:47;;;;;;;36.17;20.35;;;;;;;4.33;100.00;101045.91;5111130;28;20387;-70
2023/01/12 09:02:14;;;;;;;37.05;21.58;;;;;;;4.37;100.00;101050.09;5108324;28;20126;-71
2023/01/12 09:04:40;;;;;;;35.50;20.05;;;;;;;4.37;100.00;101048.31;5107481;28;20575;-71
2023/01/12 09:07:07;;;;;;;33.70;19.98;;;;;;;4.33;100.00;101036.13;5110852;28;20035;-70
2023/01/12 09:09:32;;;;;;;32.08;19.38;;;;;;;4.42;100.00;101048.09;5110449;28;20071;-71
2023/01/12 09:11:58;;;;;;;29.55;19.17;;;;;;;4.39;100.00;101040.28;5110332;28;20420;-71
2023/01/12 09:14:26;;;;;;;30.05;19.30;;;;;;;4.46;100.00;101049.66;5103896;28;20054;-70
2023/01/12 09:16:52;;;;;;;27.73;18.80;;;;;;;4.43;100.00;101031.22;5109667;28;20019;-71
2023/01/12 09:19:18;;;;;;;33.15;18.98;;;;;;;4.47;100.00;101041.59;5110242;28;20424;-71
2023/01/12 09:21:44;;;;;;;31.58;19.08;;;;;;;4.55;100.00;101051.84;5109021;28;20121;-71
2023/01/12 09:24:10;;;;;;;30.08;20.20;;;;;;;4.52;100.00;101044.03;5110397;28;20019;-70
2023/01/12 09:26:39;;;;;;;34.75;21.17;;;;;;;4.57;100.00;101047.28;5110190;28;20032;-70
2023/01/12 09:29:06;;;;;;;37.65;20.42;;;;;;;4.55;100.00;101030.59;5110197;28;20023;-71
2023/01/12 09:31:33;;;;;;;33.90;19.60;;;;;;;4.71;100.00;101044.78;5109650;28;20256;-70
2023/01/12 09:33:59;;;;;;;29.77;18.25;;;;;;;4.63;100.00;101031.03;5109856;28;20136;-68
2023/01/12 09:36:27;;;;;;;25.98;16.80;;;;;;;4.74;100.00;101040.16;5109569;28;20051;-69
2023/01/12 09:38:53;;;;;;;24.95;16.15;;;;;;;4.70;100.00;101041.28;5109771;28;20036;-69
2023/01/12 09:47:29;;;;;;;26.13;14.88;;;;;;;4.83;100.00;101033.50;5108077;28;20080;-68
2023/01/12 09:50:23;;;;;;;25.75;14.93;;;;;;;4.84;100.00;101034.38;5109516;28;20483;-69
2023/01/12 09:53:15;;;;;;;22.38;15.15;;;;;;;4.87;100.00;101020.91;5108361;28;20027;-69
2023/01/12 09:55:43;;;;;;;22.77;15.27;;;;;;;4.91;100.00;101019.81;5100104;28;20086;-67
2023/01/12 09:58:29;;;;;;;26.55;16.50;;;;;;;4.85;100.00;101006.84;5108907;28;20076;-68
2023/01/12 10:00:56;;;;;;;26.25;16.10;;;;;;;4.98;100.00;101021.19;5107911;28;20123;-68
2023/01/12 10:03:28;;;;;;;25.42;15.90;;;;;;;5.02;100.00;101020.94;5109004;28;20881;-69
2023/01/12 10:05:59;;;;;;;27.65;16.50;;;;;;;5.05;100.00;101015.47;5108999;28;20476;-68
2023/01/12 10:08:28;;;;;;;23.63;15.70;;;;;;;5.14;100.00;101022.94;5108872;28;20031;-68
2023/01/12 10:11:12;;;;;;;26.08;16.52;;;;;;;5.15;100.00;101018.47;5109184;28;20073;-67
2023/01/12 10:13:58;;;;;;;;;;;;;;;5.14;100.00;101014.97;5108772;28;20026;-69
2023/01/12 10:16:32;;;;;;;21.98;15.18;;;;;;;5.26;100.00;101014.31;5066559;28;20319;-68
2023/01/12 10:19:05;;;;;;;26.25;16.33;;;;;;;5.34;100.00;101022.72;5103162;28;20080;-67
2023/01/12 10:21:31;;;;;;;26.42;16.27;;;;;;;5.32;100.00;100994.50;5105132;28;20096;-69
2023/01/12 10:23:57;;;;;;;25.30;16.38;;;;;;;5.44;100.00;101004.44;5108486;28;20031;-68
2023/01/12 10:26:24;;;;;;;23.67;16.02;;;;;;;5.48;100.00;101006.84;5108524;28;20040;-68
2023/01/12 10:28:53;;;;;;;25.05;15.60;;;;;;;5.47;100.00;101004.25;5108658;27;20023;-69
2023/01/12 10:31:22;;;;;;;22.55;14.63;;;;;;;5.73;100.00;101012.50;5108189;28;20031;-69
2023/01/12 10:34:23;;;;;;;23.77;15.15;;;;;;;5.72;100.00;101008.13;5108528;28;20027;-68
2023/01/12 10:36:56;;;;;;;21.38;14.57;;;;;;;5.77;100.00;101013.19;5025896;28;20127;-68
2023/01/12 10:39:29;;;;;;;20.23;15.10;;;;;;;5.93;100.00;101014.91;5083022;28;20035;-68
2023/01/12 10:45:14;;;;;;;22.63;15.18;;;;;;;5.83;100.00;101003.06;5108244;28;20536;-68
2023/01/12 10:47:44;;;;;;;23.33;14.48;;;;;;;5.89;100.00;100985.88;5106273;28;20031;-68
2023/01/12 10:50:35;;;;;;;19.85;14.40;;;;;;;5.95;100.00;100982.88;5096004;28;20032;-68
2023/01/12 10:53:08;;;;;;;21.67;14.18;;;;;;;6.27;100.00;100985.38;5100099;28;20066;-67
2023/01/12 10:55:38;;;;;;;24.67;14.48;;;;;;;6.22;100.00;100979.44;5101800;28;20115;-67
2023/01/12 10:58:05;;;;;;;23.63;14.48;;;;;;;6.25;100.00;100971.25;5101422;28;20082;-69
2023/01/12 11:00:30;;;;;;;23.30;14.80;;;;;;;6.39;100.00;100979.28;5101933;28;20031;-69
2023/01/12 11:02:56;;;;;;;25.35;14.45;;;;;;;6.45;100.00;100983.41;5098687;28;20040;-67
2023/01/12 11:05:37;;;;;;;21.52;15.77;;;;;;;6.55;100.00;100982.72;5094667;28;20089;-69
2023/01/12 11:08:21;;;;;;;22.90;14.68;;;;;;;6.66;100.00;100974.97;5099054;28;20382;-68
2023/01/12 11:10:46;;;;;;;20.50;13.77;;;;;;;6.58;100.00;100963.06;5097351;28;20028;-68
2023/01/12 11:13:25;;;;;;;22.20;15.18;;;;;;;6.56;100.00;100967.63;5096948;28;20062;-69
2023/01/12 11:16:18;;;;;;;22.17;14.48;;;;;;;6.58;100.00;100966.56;5101633;28;20024;-66
2023/01/12 11:18:59;;;;;;;21.83;15.02;;;;;;;6.84;100.00;100956.97;5097086;28;20031;-67
2023/01/12 11:21:29;;;;;;;26.52;15.27;;;;;;;6.86;100.00;100958.59;5102131;28;20028;-69
2023/01/12 11:24:20;;;;;;;22.23;15.40;;;;;;;6.90;100.00;100954.75;5104391;28;20031;-69
2023/01/12 11:26:58;;;;;;;24.40;16.00;;;;;;;6.96;100.00;100953.50;5094261;28;20048;-68
2023/01/12 11:29:38;;;;;;;22.95;15.57;;;;;;;6.90;100.00;100943.22;5101176;28;20060;-69
2023/01/12 11:32:11;;;;;;;23.27;14.88;;;;;;;7.07;100.00;100941.22;5093020;28;20483;-68
2023/01/12 11:34:42;;;;;;;20.10;14.50;;;;;;;7.23;100.00;100937.59;5103822;28;20024;-69
2023/01/12 11:37:11;;;;;;;24.30;15.07;;;;;;;7.49;100.00;100939.41;5102396;28;20124;-68
2023/01/12 11:39:39;;;;;;;21.17;14.77;;;;;;;7.65;100.00;100940.13;5103605;28;20015;-70
2023/01/12 11:45:44;;;;;;;17.40;11.95;;;;;;;7.78;100.00;100917.00;5110443;28;20689;-67
2023/01/12 11:48:36;;;;;;;20.02;12.18;;;;;;;7.85;100.00;100913.81;5110353;28;20104;-68
2023/01/12 11:51:02;;;;;;;17.77;13.07;;;;;;;7.90;100.00;100924.19;5109275;28;20050;-69
2023/01/12 11:53:27;;;;;;;18.50;12.75;;;;;;;7.92;100.00;100920.44;5110129;28;20024;-67
2023/01/12 11:56:25;;;;;;;16.10;11.60;;;;;;;8.05;100.00;100921.34;5109654;28;20491;-69
2023/01/12 11:59:09;;;;;;;21.02;12.35;;;;;;;8.09;100.00;100919.31;5039172;28;20045;-69